sensor_id;sensor_type;location;lat;lon;timestamp;temperature;humidity
20141;DHT22;10231;47.702;9.826;2024-01-15T00:01:04;1.00;99.90
20141;DHT22;10231;47.702;9.826;2024-01-15T00:03:29;1.00;99.90
20141;DHT22;10231;47.702;9.826;2024-01-15T00:05:55;1.00;99.90
20141;DHT22;10231;47.702;9.826;2024-01-15T00:08:20;1.30;99.90
20141;DHT22;10231;47.702;9.826;2024-01-15T00:10:46;1.00;99.90
20141;DHT22;10231;47.702;9.826;2024-01-15T00:13:12;1.00;99.90
20141;DHT22;10231;47.702;9.826;2024-01-15T00:15:38;0.90;99.90
20141;DHT22;10231;47.702;9.826;2024-01-15T00:18:03;0.90;99.90
20141;DHT22;10231;47.702;9.826;2024-01-15T00:20:29;0.90;99.90
20141;DHT22;10231;47.702;9.826;2024-01-15T00:22:55;0.90;99.90
20141;DHT22;10231;47.702;9.826;2024-01-15T00:25:20;0.90;99.90
20141;DHT22;10231;47.702;9.826;2024-01-15T00:27:46;1.00;99.90
20141;DHT22;10231;47.702;9.826;2024-01-15T00:30:12;1.00;99.90
20141;DHT22;10231;47.702;9.826;2024-01-15T00:32:38;1.00;99.90
20141;DHT22;10231;47.702;9.826;2024-01-15T00:35:04;1.00;99.90
20141;DHT22;10231;47.702;9.826;2024-01-15T00:37:30;1.00;99.90
20141;DHT22;10231;47.702;9.826;2024-01-15T00:39:56;1.00;99.90
20141;DHT22;10231;47.702;9.826;2024-01-15T00:42:21;1.00;99.90
20141;DHT22;10231;47.702;9.826;2024-01-15T00:44:47;1.00;99.90
20141;DHT22;10231;47.702;9.826;2024-01-15T00:47:13;1.00;99.90
20141;DHT22;10231;47.702;9.826;2024-01-15T00:49:39;1.00;99.90
20141;DHT22;10231;47.702;9.826;2024-01-15T00:52:05;1.00;99.90
20141;DHT22;10231;47.702;9.826;2024-01-15T00:54:31;1.00;99.90
20141;DHT22;10231;47.702;9.826;2024-01-15T00:56:56;1.00;99.90
20141;DHT22;10231;47.702;9.826;2024-01-15T00:59:22;1.00;99.90
20141;DHT22;10231;47.702;9.826;2024-01-15T01:01:47;1.00;99.90
20141;DHT22;10231;47.702;9.826;2024-01-15T01:04:13;1.00;99.90
20141;DHT22;10231;47.702;9.826;2024-01-15T01:06:39;1.00;99.90
20141;DHT22;10231;47.702;9.826;2024-01-15T01:09:05;1.10;99.90
20141;DHT22;10231;47.702;9.826;2024-01-15T01:11:30;1.00;99.90
20141;DHT22;10231;47.702;9.826;2024-01-15T01:13:56;1.00;99.90
20141;DHT22;10231;47.702;9.826;2024-01-15T01:16:22;1.10;99.90
20141;DHT22;10231;47.702;9.826;2024-01-15T01:18:48;1.00;99.90
20141;DHT22;10231;47.702;9.826;2024-01-15T01:21:13;1.00;99.90
20141;DHT22;10231;47.702;9.826;2024-01-15T01:23:39;1.00;99.90
20141;DHT22;10231;47.702;9.826;2024-01-15T01:26:04;1.00;99.90
20141;DHT22;10231;47.702;9.826;2024-01-15T01:28:30;0.90;99.90
20141;DHT22;10231;47.702;9.826;2024-01-15T01:30:56;0.90;99.90
20141;DHT22;10231;47.702;9.826;2024-01-15T01:33:21;0.90;99.90
20141;DHT22;10231;47.702;9.826;2024-01-15T01:35:47;0.90;99.90
20141;DHT22;10231;47.702;9.826;2024-01-15T01:38:13;0.90;99.90
20141;DHT22;10231;47.702;9.826;2024-01-15T01:40:38;0.90;99.90
20141;DHT22;10231;47.702;9.826;2024-01-15T01:43:08;0.90;99.90
20141;DHT22;10231;47.702;9.826;2024-01-15T01:45:34;1.00;99.90
20141;DHT22;10231;47.702;9.826;2024-01-15T01:48:00;1.00;99.90
20141;DHT22;10231;47.702;9.826;2024-01-15T01:50:28;1.00;99.90
20141;DHT22;10231;47.702;9.826;2024-01-15T01:52:54;1.00;99.90
20141;DHT22;10231;47.702;9.826;2024-01-15T01:55:20;1.00;99.90
20141;DHT22;10231;47.702;9.826;2024-01-15T01:57:47;1.00;99.90
20141;DHT22;10231;47.702;9.826;2024-01-15T02:00:13;1.00;99.90
20141;DHT22;10231;47.702;9.826;2024-01-15T02:02:39;1.00;99.90
20141;DHT22;10231;47.702;9.826;2024-01-15T02:05:05;1.00;99.90
20141;DHT22;10231;47.702;9.826;2024-01-15T02:07:31;1.00;99.90
20141;DHT22;10231;47.702;9.826;2024-01-15T02:09:57;1.00;99.90
20141;DHT22;10231;47.702;9.826;2024-01-15T02:12:22;1.00;99.90
20141;DHT22;10231;47.702;9.826;2024-01-15T02:14:48;0.90;99.90
20141;DHT22;10231;47.702;9.826;2024-01-15T02:17:14;0.90;99.90
20141;DHT22;10231;47.702;9.826;2024-01-15T02:19:39;0.90;99.90
20141;DHT22;10231;47.702;9.826;2024-01-15T02:22:06;0.90;99.90
20141;DHT22;10231;47.702;9.826;2024-01-15T02:24:31;0.80;99.90
20141;DHT22;10231;47.702;9.826;2024-01-15T02:26:57;0.80;99.90
20141;DHT22;10231;47.702;9.826;2024-01-15T02:29:23;0.80;99.90
20141;DHT22;10231;47.702;9.826;2024-01-15T02:31:48;0.80;99.90
20141;DHT22;10231;47.702;9.826;2024-01-15T02:34:14;0.80;99.90
20141;DHT22;10231;47.702;9.826;2024-01-15T02:36:39;0.80;99.90
20141;DHT22;10231;47.702;9.826;2024-01-15T02:39:05;0.80;99.90
20141;DHT22;10231;47.702;9.826;2024-01-15T02:41:30;0.70;99.90
20141;DHT22;10231;47.702;9.826;2024-01-15T02:43:56;0.70;99.90
20141;DHT22;10231;47.702;9.826;2024-01-15T02:46:21;0.70;99.90
20141;DHT22;10231;47.702;9.826;2024-01-15T02:48:47;0.70;99.90
20141;DHT22;10231;47.702;9.826;2024-01-15T02:51:13;0.70;99.90
20141;DHT22;10231;47.702;9.826;2024-01-15T02:53:39;0.60;99.90
20141;DHT22;10231;47.702;9.826;2024-01-15T02:56:04;0.70;99.90
20141;DHT22;10231;47.702;9.826;2024-01-15T02:58:32;0.60;99.90
20141;DHT22;10231;47.702;9.826;2024-01-15T03:00:57;0.60;99.90
20141;DHT22;10231;47.702;9.826;2024-01-15T03:03:23;0.60;99.90
20141;DHT22;10231;47.702;9.826;2024-01-15T03:05:48;0.50;99.90
20141;DHT22;10231;47.702;9.826;2024-01-15T03:08:14;0.40;99.90
20141;DHT22;10231;47.702;9.826;2024-01-15T03:10:39;0.40;99.90
20141;DHT22;10231;47.702;9.826;2024-01-15T03:13:05;0.30;99.90
20141;DHT22;10231;47.702;9.826;2024-01-15T03:15:31;0.20;99.90
20141;DHT22;10231;47.702;9.826;2024-01-15T03:17:56;0.20;99.90
20141;DHT22;10231;47.702;9.826;2024-01-15T03:20:22;0.20;99.90
20141;DHT22;10231;47.702;9.826;2024-01-15T03:22:47;0.20;99.90
20141;DHT22;10231;47.702;9.826;2024-01-15T03:25:14;0.10;99.90
20141;DHT22;10231;47.702;9.826;2024-01-15T03:27:39;0.10;99.90
20141;DHT22;10231;47.702;9.826;2024-01-15T03:30:05;0.10;99.90
20141;DHT22;10231;47.702;9.826;2024-01-15T03:32:31;0.10;99.90
20141;DHT22;10231;47.702;9.826;2024-01-15T03:34:56;0.00;99.90
20141;DHT22;10231;47.702;9.826;2024-01-15T03:37:22;-0.10;99.90
20141;DHT22;10231;47.702;9.826;2024-01-15T03:39:48;-0.10;99.90
20141;DHT22;10231;47.702;9.826;2024-01-15T03:42:13;-0.10;99.90
20141;DHT22;10231;47.702;9.826;2024-01-15T03:44:39;-0.10;99.90
20141;DHT22;10231;47.702;9.826;2024-01-15T03:47:05;-0.10;99.90
20141;DHT22;10231;47.702;9.826;2024-01-15T03:49:30;-0.10;99.90
20141;DHT22;10231;47.702;9.826;2024-01-15T03:51:56;-0.10;99.90
20141;DHT22;10231;47.702;9.826;2024-01-15T03:54:22;0.00;99.90
20141;DHT22;10231;47.702;9.826;2024-01-15T03:56:47;0.00;99.90
20141;DHT22;10231;47.702;9.826;2024-01-15T03:59:13;0.00;99.90
20141;DHT22;10231;47.702;9.826;2024-01-15T04:01:38;0.00;99.90
20141;DHT22;10231;47.702;9.826;2024-01-15T04:04:04;0.00;99.90
20141;DHT22;10231;47.702;9.826;2024-01-15T04:06:29;0.00;99.90
20141;DHT22;10231;47.702;9.826;2024-01-15T04:08:55;0.00;99.90
20141;DHT22;10231;47.702;9.826;2024-01-15T04:11:27;0.10;99.90
20141;DHT22;10231;47.702;9.826;2024-01-15T04:13:52;0.00;99.90
20141;DHT22;10231;47.702;9.826;2024-01-15T04:16:18;0.00;99.90
20141;DHT22;10231;47.702;9.826;2024-01-15T04:18:44;0.00;99.90
20141;DHT22;10231;47.702;9.826;2024-01-15T04:21:09;0.00;99.90
20141;DHT22;10231;47.702;9.826;2024-01-15T04:23:35;0.00;99.90
20141;DHT22;10231;47.702;9.826;2024-01-15T04:26:01;0.00;99.90
20141;DHT22;10231;47.702;9.826;2024-01-15T04:28:26;0.00;99.90
20141;DHT22;10231;47.702;9.826;2024-01-15T04:30:52;0.00;99.90
20141;DHT22;10231;47.702;9.826;2024-01-15T04:33:17;0.10;99.90
20141;DHT22;10231;47.702;9.826;2024-01-15T04:35:43;0.10;99.90
20141;DHT22;10231;47.702;9.826;2024-01-15T04:38:08;0.00;99.90
20141;DHT22;10231;47.702;9.826;2024-01-15T04:40:34;0.00;99.90
20141;DHT22;10231;47.702;9.826;2024-01-15T04:42:59;-0.10;99.90
20141;DHT22;10231;47.702;9.826;2024-01-15T04:45:25;-0.10;99.90
20141;DHT22;10231;47.702;9.826;2024-01-15T04:47:54;-0.10;99.90
20141;DHT22;10231;47.702;9.826;2024-01-15T04:50:22;-0.20;99.90
20141;DHT22;10231;47.702;9.826;2024-01-15T04:52:47;-0.20;99.90
20141;DHT22;10231;47.702;9.826;2024-01-15T04:55:13;-0.20;99.90
20141;DHT22;10231;47.702;9.826;2024-01-15T04:57:38;-0.20;99.90
20141;DHT22;10231;47.702;9.826;2024-01-15T05:00:04;-0.30;99.90
20141;DHT22;10231;47.702;9.826;2024-01-15T05:02:30;-0.20;99.90
20141;DHT22;10231;47.702;9.826;2024-01-15T05:04:56;-0.20;99.90
20141;DHT22;10231;47.702;9.826;2024-01-15T05:07:21;-0.20;99.90
20141;DHT22;10231;47.702;9.826;2024-01-15T05:09:47;-0.20;99.90
20141;DHT22;10231;47.702;9.826;2024-01-15T05:12:12;-0.10;99.90
20141;DHT22;10231;47.702;9.826;2024-01-15T05:14:38;-0.10;99.90
20141;DHT22;10231;47.702;9.826;2024-01-15T05:17:04;-0.10;99.90
20141;DHT22;10231;47.702;9.826;2024-01-15T05:19:30;-0.10;99.90
20141;DHT22;10231;47.702;9.826;2024-01-15T05:21:55;0.00;99.90
20141;DHT22;10231;47.702;9.826;2024-01-15T05:24:21;-0.10;99.90
20141;DHT22;10231;47.702;9.826;2024-01-15T05:26:46;-0.10;99.90
20141;DHT22;10231;47.702;9.826;2024-01-15T05:29:12;-0.10;99.90
20141;DHT22;10231;47.702;9.826;2024-01-15T05:31:38;-0.10;99.90
20141;DHT22;10231;47.702;9.826;2024-01-15T05:34:03;-0.10;99.90
20141;DHT22;10231;47.702;9.826;2024-01-15T05:36:29;-0.10;99.90
20141;DHT22;10231;47.702;9.826;2024-01-15T05:38:54;-0.10;99.90
20141;DHT22;10231;47.702;9.826;2024-01-15T05:41:20;0.00;99.90
20141;DHT22;10231;47.702;9.826;2024-01-15T05:43:45;0.00;99.90
20141;DHT22;10231;47.702;9.826;2024-01-15T05:46:11;-0.10;99.90
20141;DHT22;10231;47.702;9.826;2024-01-15T05:48:36;-0.10;99.90
20141;DHT22;10231;47.702;9.826;2024-01-15T05:51:02;-0.10;99.90
20141;DHT22;10231;47.702;9.826;2024-01-15T05:53:27;-0.10;99.90
20141;DHT22;10231;47.702;9.826;2024-01-15T05:55:53;-0.10;99.90
20141;DHT22;10231;47.702;9.826;2024-01-15T05:58:21;0.00;99.90
20141;DHT22;10231;47.702;9.826;2024-01-15T06:00:46;0.00;99.90
20141;DHT22;10231;47.702;9.826;2024-01-15T06:03:13;0.00;99.90
20141;DHT22;10231;47.702;9.826;2024-01-15T06:05:38;-0.10;99.90
20141;DHT22;10231;47.702;9.826;2024-01-15T06:08:05;-0.10;99.90
20141;DHT22;10231;47.702;9.826;2024-01-15T06:10:30;-0.10;99.90
20141;DHT22;10231;47.702;9.826;2024-01-15T06:12:56;-0.10;99.90
20141;DHT22;10231;47.702;9.826;2024-01-15T06:15:21;0.00;99.90
20141;DHT22;10231;47.702;9.826;2024-01-15T06:17:47;0.00;99.90
20141;DHT22;10231;47.702;9.826;2024-01-15T06:20:13;-0.10;99.90
20141;DHT22;10231;47.702;9.826;2024-01-15T06:22:38;0.00;99.90
20141;DHT22;10231;47.702;9.826;2024-01-15T06:25:08;0.00;99.90
20141;DHT22;10231;47.702;9.826;2024-01-15T06:27:34;-0.10;99.90
20141;DHT22;10231;47.702;9.826;2024-01-15T06:29:59;0.00;99.90
20141;DHT22;10231;47.702;9.826;2024-01-15T06:32:25;0.10;99.90
20141;DHT22;10231;47.702;9.826;2024-01-15T06:34:50;0.10;99.90
20141;DHT22;10231;47.702;9.826;2024-01-15T06:37:16;0.10;99.90
20141;DHT22;10231;47.702;9.826;2024-01-15T06:39:44;0.00;99.90
20141;DHT22;10231;47.702;9.826;2024-01-15T06:42:09;0.00;99.90
20141;DHT22;10231;47.702;9.826;2024-01-15T06:44:35;0.10;99.90
20141;DHT22;10231;47.702;9.826;2024-01-15T06:47:00;0.10;99.90
20141;DHT22;10231;47.702;9.826;2024-01-15T06:49:28;0.10;99.90
20141;DHT22;10231;47.702;9.826;2024-01-15T06:51:55;0.10;99.90
20141;DHT22;10231;47.702;9.826;2024-01-15T06:54:20;0.20;99.90
20141;DHT22;10231;47.702;9.826;2024-01-15T06:56:46;0.10;99.90
20141;DHT22;10231;47.702;9.826;2024-01-15T06:59:11;0.10;99.90
20141;DHT22;10231;47.702;9.826;2024-01-15T07:01:37;0.10;99.90
20141;DHT22;10231;47.702;9.826;2024-01-15T07:04:02;0.00;99.90
20141;DHT22;10231;47.702;9.826;2024-01-15T07:06:28;0.10;99.90
20141;DHT22;10231;47.702;9.826;2024-01-15T07:08:56;0.00;99.90
20141;DHT22;10231;47.702;9.826;2024-01-15T07:11:21;0.10;99.90
20141;DHT22;10231;47.702;9.826;2024-01-15T07:13:47;0.10;99.90
20141;DHT22;10231;47.702;9.826;2024-01-15T07:16:12;0.10;99.90
20141;DHT22;10231;47.702;9.826;2024-01-15T07:18:38;0.10;99.90
20141;DHT22;10231;47.702;9.826;2024-01-15T07:21:04;0.20;99.90
20141;DHT22;10231;47.702;9.826;2024-01-15T07:23:31;0.20;99.90
20141;DHT22;10231;47.702;9.826;2024-01-15T07:25:57;0.20;99.90
20141;DHT22;10231;47.702;9.826;2024-01-15T07:28:25;0.20;99.90
20141;DHT22;10231;47.702;9.826;2024-01-15T07:30:54;0.10;99.90
20141;DHT22;10231;47.702;9.826;2024-01-15T07:33:19;0.10;99.90
20141;DHT22;10231;47.702;9.826;2024-01-15T07:35:45;0.10;99.90
20141;DHT22;10231;47.702;9.826;2024-01-15T07:38:11;0.10;99.90
20141;DHT22;10231;47.702;9.826;2024-01-15T07:40:37;0.20;99.90
20141;DHT22;10231;47.702;9.826;2024-01-15T07:43:03;0.10;99.90
20141;DHT22;10231;47.702;9.826;2024-01-15T07:45:28;0.20;99.90
20141;DHT22;10231;47.702;9.826;2024-01-15T07:47:54;0.30;99.90
20141;DHT22;10231;47.702;9.826;2024-01-15T07:50:19;0.30;99.90
20141;DHT22;10231;47.702;9.826;2024-01-15T07:52:45;0.20;99.90
20141;DHT22;10231;47.702;9.826;2024-01-15T07:55:11;0.20;99.90
20141;DHT22;10231;47.702;9.826;2024-01-15T07:57:36;0.10;99.90
20141;DHT22;10231;47.702;9.826;2024-01-15T08:00:03;0.10;99.90
20141;DHT22;10231;47.702;9.826;2024-01-15T08:02:30;0.20;99.90
20141;DHT22;10231;47.702;9.826;2024-01-15T08:04:57;0.20;99.90
20141;DHT22;10231;47.702;9.826;2024-01-15T08:07:24;0.20;99.90
20141;DHT22;10231;47.702;9.826;2024-01-15T08:09:51;0.10;99.90
20141;DHT22;10231;47.702;9.826;2024-01-15T08:12:17;0.10;99.90
20141;DHT22;10231;47.702;9.826;2024-01-15T08:14:43;0.10;99.90
20141;DHT22;10231;47.702;9.826;2024-01-15T08:17:08;0.10;99.90
20141;DHT22;10231;47.702;9.826;2024-01-15T08:19:34;0.10;99.90
20141;DHT22;10231;47.702;9.826;2024-01-15T08:21:59;0.00;99.90
20141;DHT22;10231;47.702;9.826;2024-01-15T08:24:25;0.10;99.90
20141;DHT22;10231;47.702;9.826;2024-01-15T08:26:50;0.10;99.90
20141;DHT22;10231;47.702;9.826;2024-01-15T08:29:16;0.10;99.90
20141;DHT22;10231;47.702;9.826;2024-01-15T08:31:44;0.00;99.90
20141;DHT22;10231;47.702;9.826;2024-01-15T08:34:09;0.00;99.90
20141;DHT22;10231;47.702;9.826;2024-01-15T08:36:35;0.00;99.90
20141;DHT22;10231;47.702;9.826;2024-01-15T08:39:01;0.00;99.90
20141;DHT22;10231;47.702;9.826;2024-01-15T08:41:30;0.00;99.90
20141;DHT22;10231;47.702;9.826;2024-01-15T08:43:56;0.00;99.90
20141;DHT22;10231;47.702;9.826;2024-01-15T08:46:21;-0.10;99.90
20141;DHT22;10231;47.702;9.826;2024-01-15T08:48:47;-0.10;99.90
20141;DHT22;10231;47.702;9.826;2024-01-15T08:51:12;-0.10;99.90
20141;DHT22;10231;47.702;9.826;2024-01-15T08:53:38;0.00;99.90
20141;DHT22;10231;47.702;9.826;2024-01-15T08:56:04;0.00;99.90
20141;DHT22;10231;47.702;9.826;2024-01-15T08:58:31;0.00;99.90
20141;DHT22;10231;47.702;9.826;2024-01-15T09:00:56;-0.10;99.90
20141;DHT22;10231;47.702;9.826;2024-01-15T09:03:22;-0.10;99.90
20141;DHT22;10231;47.702;9.826;2024-01-15T09:05:48;-0.10;99.90
20141;DHT22;10231;47.702;9.826;2024-01-15T09:08:15;-0.10;99.90
20141;DHT22;10231;47.702;9.826;2024-01-15T09:10:40;-0.10;99.90
20141;DHT22;10231;47.702;9.826;2024-01-15T09:13:06;-0.10;99.90
20141;DHT22;10231;47.702;9.826;2024-01-15T09:15:32;-0.10;99.90
20141;DHT22;10231;47.702;9.826;2024-01-15T09:17:57;-0.10;99.90
20141;DHT22;10231;47.702;9.826;2024-01-15T09:20:24;-0.10;99.90
20141;DHT22;10231;47.702;9.826;2024-01-15T09:22:51;-0.10;99.90
20141;DHT22;10231;47.702;9.826;2024-01-15T09:25:17;-0.10;99.90
20141;DHT22;10231;47.702;9.826;2024-01-15T09:27:42;-0.10;99.90
20141;DHT22;10231;47.702;9.826;2024-01-15T09:30:08;-0.10;99.90
20141;DHT22;10231;47.702;9.826;2024-01-15T09:32:34;0.00;99.90
20141;DHT22;10231;47.702;9.826;2024-01-15T09:34:59;0.00;99.90
20141;DHT22;10231;47.702;9.826;2024-01-15T09:37:25;-0.10;99.90
20141;DHT22;10231;47.702;9.826;2024-01-15T09:39:51;0.00;99.90
20141;DHT22;10231;47.702;9.826;2024-01-15T09:42:16;-0.10;99.90
20141;DHT22;10231;47.702;9.826;2024-01-15T09:44:42;-0.10;99.90
20141;DHT22;10231;47.702;9.826;2024-01-15T09:47:09;-0.10;99.90
20141;DHT22;10231;47.702;9.826;2024-01-15T09:49:35;-0.20;99.90
20141;DHT22;10231;47.702;9.826;2024-01-15T09:52:01;-0.20;99.90
20141;DHT22;10231;47.702;9.826;2024-01-15T09:54:27;-0.10;99.90
20141;DHT22;10231;47.702;9.826;2024-01-15T09:56:54;-0.10;99.90
20141;DHT22;10231;47.702;9.826;2024-01-15T09:59:20;-0.10;99.90
20141;DHT22;10231;47.702;9.826;2024-01-15T10:01:48;-0.20;99.90
20141;DHT22;10231;47.702;9.826;2024-01-15T10:04:15;-0.20;99.90
20141;DHT22;10231;47.702;9.826;2024-01-15T10:06:44;-0.20;99.90
20141;DHT22;10231;47.702;9.826;2024-01-15T10:09:13;-0.10;99.90
20141;DHT22;10231;47.702;9.826;2024-01-15T10:11:42;0.00;99.90
20141;DHT22;10231;47.702;9.826;2024-01-15T10:14:12;0.00;99.90
20141;DHT22;10231;47.702;9.826;2024-01-15T10:16:38;0.00;99.90
20141;DHT22;10231;47.702;9.826;2024-01-15T10:19:04;0.00;99.90
20141;DHT22;10231;47.702;9.826;2024-01-15T10:21:32;0.00;99.90
20141;DHT22;10231;47.702;9.826;2024-01-15T10:24:00;0.00;99.90
20141;DHT22;10231;47.702;9.826;2024-01-15T10:26:26;0.00;99.90
20141;DHT22;10231;47.702;9.826;2024-01-15T10:28:52;0.00;99.90
20141;DHT22;10231;47.702;9.826;2024-01-15T10:31:18;0.00;99.90
20141;DHT22;10231;47.702;9.826;2024-01-15T10:33:45;-0.10;99.90
20141;DHT22;10231;47.702;9.826;2024-01-15T10:36:10;0.00;99.90
20141;DHT22;10231;47.702;9.826;2024-01-15T10:38:38;0.00;99.90
20141;DHT22;10231;47.702;9.826;2024-01-15T10:41:04;0.00;99.90
20141;DHT22;10231;47.702;9.826;2024-01-15T10:43:30;-0.10;99.90
20141;DHT22;10231;47.702;9.826;2024-01-15T10:45:55;0.00;99.90
20141;DHT22;10231;47.702;9.826;2024-01-15T10:48:21;0.00;99.90
20141;DHT22;10231;47.702;9.826;2024-01-15T10:50:47;0.00;99.90
20141;DHT22;10231;47.702;9.826;2024-01-15T10:53:15;0.00;99.90
20141;DHT22;10231;47.702;9.826;2024-01-15T10:55:41;0.10;99.90
20141;DHT22;10231;47.702;9.826;2024-01-15T10:58:08;0.10;99.90
20141;DHT22;10231;47.702;9.826;2024-01-15T11:00:37;0.10;99.90
20141;DHT22;10231;47.702;9.826;2024-01-15T11:03:05;0.10;99.90
20141;DHT22;10231;47.702;9.826;2024-01-15T11:05:46;0.20;99.90
20141;DHT22;10231;47.702;9.826;2024-01-15T11:08:13;0.20;99.90
20141;DHT22;10231;47.702;9.826;2024-01-15T11:10:44;0.10;99.90
20141;DHT22;10231;47.702;9.826;2024-01-15T11:16:03;0.20;99.90
20141;DHT22;10231;47.702;9.826;2024-01-15T11:18:41;0.20;99.90
20141;DHT22;10231;47.702;9.826;2024-01-15T11:26:45;0.20;99.90
20141;DHT22;10231;47.702;9.826;2024-01-15T11:34:21;0.20;99.90
20141;DHT22;10231;47.702;9.826;2024-01-15T11:41:57;0.30;99.90
20141;DHT22;10231;47.702;9.826;2024-01-15T11:44:23;0.30;99.90
20141;DHT22;10231;47.702;9.826;2024-01-15T11:47:01;0.30;99.90
20141;DHT22;10231;47.702;9.826;2024-01-15T11:52:08;0.30;99.90
20141;DHT22;10231;47.702;9.826;2024-01-15T11:54:38;0.30;99.90
20141;DHT22;10231;47.702;9.826;2024-01-15T11:57:10;0.30;99.90
20141;DHT22;10231;47.702;9.826;2024-01-15T11:59:41;0.30;99.90
20141;DHT22;10231;47.702;9.826;2024-01-15T12:02:07;0.30;99.90
20141;DHT22;10231;47.702;9.826;2024-01-15T12:04:32;0.40;99.90
20141;DHT22;10231;47.702;9.826;2024-01-15T12:06:58;0.50;99.90
20141;DHT22;10231;47.702;9.826;2024-01-15T12:09:24;0.40;99.90
20141;DHT22;10231;47.702;9.826;2024-01-15T12:11:57;0.50;99.90
20141;DHT22;10231;47.702;9.826;2024-01-15T12:14:27;0.40;99.90
20141;DHT22;10231;47.702;9.826;2024-01-15T12:16:54;0.50;99.90
20141;DHT22;10231;47.702;9.826;2024-01-15T12:19:20;0.50;99.90
20141;DHT22;10231;47.702;9.826;2024-01-15T12:21:46;0.50;99.90
20141;DHT22;10231;47.702;9.826;2024-01-15T12:24:12;0.40;99.90
20141;DHT22;10231;47.702;9.826;2024-01-15T12:26:37;0.40;99.90
20141;DHT22;10231;47.702;9.826;2024-01-15T12:29:06;0.40;99.90
20141;DHT22;10231;47.702;9.826;2024-01-15T12:31:32;0.40;99.90
20141;DHT22;10231;47.702;9.826;2024-01-15T12:33:58;0.40;99.90
20141;DHT22;10231;47.702;9.826;2024-01-15T12:36:23;0.40;99.90
20141;DHT22;10231;47.702;9.826;2024-01-15T12:38:49;0.40;99.90
20141;DHT22;10231;47.702;9.826;2024-01-15T12:41:15;0.50;99.90
20141;DHT22;10231;47.702;9.826;2024-01-15T12:43:40;0.50;99.90
20141;DHT22;10231;47.702;9.826;2024-01-15T12:46:06;0.50;99.90
20141;DHT22;10231;47.702;9.826;2024-01-15T12:48:32;0.50;99.90
20141;DHT22;10231;47.702;9.826;2024-01-15T12:50:57;0.50;99.90
20141;DHT22;10231;47.702;9.826;2024-01-15T12:53:23;0.60;99.90
20141;DHT22;10231;47.702;9.826;2024-01-15T12:55:48;0.60;99.90
20141;DHT22;10231;47.702;9.826;2024-01-15T12:58:14;0.70;99.90
20141;DHT22;10231;47.702;9.826;2024-01-15T13:00:40;0.70;99.90
20141;DHT22;10231;47.702;9.826;2024-01-15T13:03:05;0.80;99.90
20141;DHT22;10231;47.702;9.826;2024-01-15T13:05:32;0.80;99.90
20141;DHT22;10231;47.702;9.826;2024-01-15T13:07:59;0.80;99.90
20141;DHT22;10231;47.702;9.826;2024-01-15T13:10:24;0.80;99.90
20141;DHT22;10231;47.702;9.826;2024-01-15T13:12:50;0.80;99.90
20141;DHT22;10231;47.702;9.826;2024-01-15T13:15:16;0.80;99.90
20141;DHT22;10231;47.702;9.826;2024-01-15T13:17:42;0.80;99.90
20141;DHT22;10231;47.702;9.826;2024-01-15T13:20:08;0.80;99.90
20141;DHT22;10231;47.702;9.826;2024-01-15T13:22:34;0.80;99.90
20141;DHT22;10231;47.702;9.826;2024-01-15T13:25:00;0.80;99.90
20141;DHT22;10231;47.702;9.826;2024-01-15T13:27:25;0.80;99.90
20141;DHT22;10231;47.702;9.826;2024-01-15T13:29:51;0.80;99.90
20141;DHT22;10231;47.702;9.826;2024-01-15T13:32:24;0.80;99.90
20141;DHT22;10231;47.702;9.826;2024-01-15T13:34:49;0.80;99.90
20141;DHT22;10231;47.702;9.826;2024-01-15T13:37:16;0.80;99.90
20141;DHT22;10231;47.702;9.826;2024-01-15T13:39:41;0.80;99.90
20141;DHT22;10231;47.702;9.826;2024-01-15T13:42:07;0.80;99.90
20141;DHT22;10231;47.702;9.826;2024-01-15T13:44:32;0.80;99.90
20141;DHT22;10231;47.702;9.826;2024-01-15T13:46:58;0.90;99.90
20141;DHT22;10231;47.702;9.826;2024-01-15T13:49:23;0.80;99.90
20141;DHT22;10231;47.702;9.826;2024-01-15T13:51:50;0.90;99.90
20141;DHT22;10231;47.702;9.826;2024-01-15T13:54:15;0.90;99.90
20141;DHT22;10231;47.702;9.826;2024-01-15T13:56:41;0.90;99.90
20141;DHT22;10231;47.702;9.826;2024-01-15T13:59:07;0.90;99.90
20141;DHT22;10231;47.702;9.826;2024-01-15T14:01:33;0.90;99.90
20141;DHT22;10231;47.702;9.826;2024-01-15T14:03:58;0.90;99.90
20141;DHT22;10231;47.702;9.826;2024-01-15T14:06:24;0.90;99.90
20141;DHT22;10231;47.702;9.826;2024-01-15T14:08:50;0.90;99.90
20141;DHT22;10231;47.702;9.826;2024-01-15T14:11:15;0.90;99.90
20141;DHT22;10231;47.702;9.826;2024-01-15T14:13:41;0.90;99.90
20141;DHT22;10231;47.702;9.826;2024-01-15T14:16:06;1.00;99.90
20141;DHT22;10231;47.702;9.826;2024-01-15T14:18:32;1.00;99.90
20141;DHT22;10231;47.702;9.826;2024-01-15T14:20:58;0.90;99.90
20141;DHT22;10231;47.702;9.826;2024-01-15T14:23:23;0.90;99.90
20141;DHT22;10231;47.702;9.826;2024-01-15T14:25:49;0.90;99.90
20141;DHT22;10231;47.702;9.826;2024-01-15T14:28:14;1.00;99.90
20141;DHT22;10231;47.702;9.826;2024-01-15T14:30:40;1.00;99.90
20141;DHT22;10231;47.702;9.826;2024-01-15T14:33:05;1.00;99.90
20141;DHT22;10231;47.702;9.826;2024-01-15T14:35:31;1.00;99.90
20141;DHT22;10231;47.702;9.826;2024-01-15T14:37:56;1.00;99.90
20141;DHT22;10231;47.702;9.826;2024-01-15T14:40:24;1.00;99.90
20141;DHT22;10231;47.702;9.826;2024-01-15T14:42:50;1.00;99.90
20141;DHT22;10231;47.702;9.826;2024-01-15T14:45:16;1.00;99.90
20141;DHT22;10231;47.702;9.826;2024-01-15T14:47:42;1.00;99.90
20141;DHT22;10231;47.702;9.826;2024-01-15T14:50:09;1.00;99.90
20141;DHT22;10231;47.702;9.826;2024-01-15T14:52:38;1.10;99.90
20141;DHT22;10231;47.702;9.826;2024-01-15T14:55:05;1.10;99.90
20141;DHT22;10231;47.702;9.826;2024-01-15T14:57:31;1.20;99.90
20141;DHT22;10231;47.702;9.826;2024-01-15T14:59:56;1.20;99.90
20141;DHT22;10231;47.702;9.826;2024-01-15T15:02:23;1.10;99.90
20141;DHT22;10231;47.702;9.826;2024-01-15T15:04:49;1.10;99.90
20141;DHT22;10231;47.702;9.826;2024-01-15T15:07:15;1.00;99.90
20141;DHT22;10231;47.702;9.826;2024-01-15T15:09:40;1.00;99.90
20141;DHT22;10231;47.702;9.826;2024-01-15T15:12:09;1.00;99.90
20141;DHT22;10231;47.702;9.826;2024-01-15T15:14:34;0.90;99.90
20141;DHT22;10231;47.702;9.826;2024-01-15T15:17:04;0.90;99.90
20141;DHT22;10231;47.702;9.826;2024-01-15T15:19:30;1.00;99.90
20141;DHT22;10231;47.702;9.826;2024-01-15T15:21:56;1.00;99.90
20141;DHT22;10231;47.702;9.826;2024-01-15T15:24:23;1.00;99.90
20141;DHT22;10231;47.702;9.826;2024-01-15T15:26:48;1.00;99.90
20141;DHT22;10231;47.702;9.826;2024-01-15T15:29:14;1.00;99.90
20141;DHT22;10231;47.702;9.826;2024-01-15T15:31:42;1.00;99.90
20141;DHT22;10231;47.702;9.826;2024-01-15T15:34:07;1.00;99.90
20141;DHT22;10231;47.702;9.826;2024-01-15T15:36:33;1.00;99.90
20141;DHT22;10231;47.702;9.826;2024-01-15T15:38:59;1.00;99.90
20141;DHT22;10231;47.702;9.826;2024-01-15T15:41:24;1.00;99.90
20141;DHT22;10231;47.702;9.826;2024-01-15T15:43:51;1.00;99.90
20141;DHT22;10231;47.702;9.826;2024-01-15T15:46:17;1.00;99.90
20141;DHT22;10231;47.702;9.826;2024-01-15T15:48:42;1.00;99.90
20141;DHT22;10231;47.702;9.826;2024-01-15T15:51:08;1.00;99.90
20141;DHT22;10231;47.702;9.826;2024-01-15T15:53:34;1.00;99.90
20141;DHT22;10231;47.702;9.826;2024-01-15T15:55:59;1.00;99.90